Terminal Aerodrome Forecast
Issued by NWS

Home | Current Version | Previous Version | Text Only | Print | Product List | Glossary On
Versions: 1 2 3 4 5 6 7 8 9 10 11 12 13 14 15 16 17 18
283
FTUS43 KAPX 041720
TAFTVC
TAF
KTVC 041720Z 0418/0518 17006KT 6SM -RASN OVC028
     FM042000 16006KT 4SM -RASN SCT015 OVC020
      TEMPO 0420/0422 2SM -SN OVC015
     FM042200 15005KT 1 1/2SM -SN OVC015
     FM050300 18006KT 2SM -SN OVC008
     FM050500 21006KT 3SM -SN OVC008
     FM050800 24006KT 6SM -SNDZ BR OVC012
     FM051200 25007KT P6SM BKN025=

USA.gov is the U.S. government's official web portal to all federal, state and local government web resources and services.